createdAt,value
2022-08-28T00:01:06.369Z,4.38
2022-08-28T00:06:05.766Z,2.63
2022-08-28T00:08:37.982Z,5.25
2022-08-28T00:11:06.610Z,2.22
2022-08-28T00:13:35.047Z,2.83
2022-08-28T00:16:09.862Z,2.47
2022-08-28T00:18:37.698Z,2.72
2022-08-28T00:21:10.358Z,3.35
2022-08-28T00:23:42.864Z,2.63
2022-08-28T00:26:11.773Z,2.00
2022-08-28T00:28:41.014Z,4.68
2022-08-28T00:31:11.179Z,2.13
2022-08-28T00:33:39.440Z,2.28
2022-08-28T00:36:11.358Z,4.43
2022-08-28T00:38:43.377Z,2.05
2022-08-28T00:41:13.534Z,2.92
2022-08-28T00:43:45.593Z,1.95
2022-08-28T00:46:18.224Z,2.47
2022-08-28T00:48:49.158Z,2.03
2022-08-28T00:51:38.388Z,2.55
2022-08-28T00:54:10.991Z,2.20
2022-08-28T00:56:41.996Z,2.50
2022-08-28T00:59:17.515Z,2.97
2022-08-28T01:01:46.747Z,2.63
2022-08-28T01:04:22.371Z,3.00
2022-08-28T01:06:54.032Z,1.67
2022-08-28T01:09:27.921Z,3.33
2022-08-28T01:12:02.095Z,2.78
2022-08-28T01:14:34.836Z,2.40
2022-08-28T01:17:04.075Z,3.20
2022-08-28T01:19:40.599Z,2.50
2022-08-28T01:22:21.835Z,2.65
2022-08-28T01:24:57.279Z,2.08
2022-08-28T01:27:25.193Z,2.08
2022-08-28T01:29:55.516Z,3.47
2022-08-28T01:32:38.387Z,2.70
2022-08-28T01:35:13.719Z,2.90
2022-08-28T01:37:42.369Z,2.83
2022-08-28T01:40:19.034Z,2.97
2022-08-28T01:42:49.316Z,3.25
2022-08-28T01:45:22.119Z,3.58
2022-08-28T01:47:52.316Z,2.22
2022-08-28T01:50:22.700Z,3.50
2022-08-28T01:55:21.736Z,3.72
2022-08-28T01:57:53.009Z,4.63
2022-08-28T02:00:27.711Z,3.03
2022-08-28T02:02:59.827Z,4.18
2022-08-28T02:05:32.290Z,2.78
2022-08-28T02:08:05.298Z,7.68
2022-08-28T02:10:40.759Z,3.70
2022-08-28T02:13:09.547Z,3.67
2022-08-28T02:15:44.352Z,5.82
2022-08-28T02:18:14.424Z,5.05
2022-08-28T02:20:44.935Z,5.75
2022-08-28T02:23:14.258Z,5.70
2022-08-28T02:25:46.069Z,4.78
2022-08-28T02:28:19.258Z,4.78
2022-08-28T02:30:49.442Z,5.32
2022-08-28T02:33:17.538Z,5.93
2022-08-28T02:35:47.347Z,4.78
2022-08-28T02:38:17.908Z,5.05
2022-08-28T02:40:52.298Z,5.78
2022-08-28T02:43:20.178Z,5.43
2022-08-28T02:45:48.350Z,6.97
2022-08-28T02:48:20.743Z,8.25
2022-08-28T02:50:48.698Z,8.48
2022-08-28T02:53:16.539Z,4.65
2022-08-28T02:55:52.282Z,5.22
2022-08-28T02:58:20.116Z,6.50
2022-08-28T03:00:51.297Z,11.77
2022-08-28T03:03:21.026Z,5.78
2022-08-28T03:05:49.724Z,7.82
2022-08-28T03:08:20.485Z,8.15
2022-08-28T03:11:00.154Z,9.50
2022-08-28T03:13:30.163Z,7.53
2022-08-28T03:16:00.546Z,9.82
2022-08-28T03:21:00.523Z,5.38
2022-08-28T03:23:31.835Z,7.45
2022-08-28T03:26:06.733Z,9.73
2022-08-28T03:28:38.434Z,5.85
2022-08-28T03:31:11.842Z,7.53
2022-08-28T03:33:42.713Z,9.90
2022-08-28T03:36:17.582Z,9.80
2022-08-28T03:38:45.507Z,6.85
2022-08-28T03:41:18.788Z,9.60
2022-08-28T03:43:49.278Z,11.10
2022-08-28T03:46:23.703Z,8.15
2022-08-28T03:48:54.269Z,6.50
2022-08-28T03:51:29.250Z,7.80
2022-08-28T03:54:00.431Z,7.43
2022-08-28T03:56:31.727Z,8.20
2022-08-28T03:59:04.842Z,9.40
2022-08-28T04:01:37.994Z,8.55
2022-08-28T04:04:08.183Z,12.25
2022-08-28T04:06:38.327Z,7.53
2022-08-28T04:09:07.074Z,7.40
2022-08-28T04:11:44.894Z,8.57
2022-08-28T04:14:12.951Z,9.68
2022-08-28T04:16:41.495Z,6.63
2022-08-28T04:19:13.585Z,5.93
2022-08-28T04:21:41.481Z,9.13
2022-08-28T04:24:09.874Z,8.90
2022-08-28T04:26:43.313Z,8.75
2022-08-28T04:29:11.272Z,8.98
2022-08-28T04:31:39.419Z,6.15
2022-08-28T04:34:12.887Z,7.10
2022-08-28T04:36:41.302Z,8.40
2022-08-28T04:39:11.047Z,6.18
2022-08-28T04:41:43.946Z,7.43
2022-08-28T04:44:11.851Z,10.43
2022-08-28T04:46:39.846Z,9.90
2022-08-28T04:49:12.205Z,11.85
2022-08-28T04:51:42.228Z,5.28
2022-08-28T04:54:13.037Z,8.48
2022-08-28T04:56:46.410Z,7.90
2022-08-28T04:59:14.343Z,9.02
2022-08-28T05:01:43.736Z,9.63
2022-08-28T05:04:16.079Z,6.77
2022-08-28T05:06:46.360Z,8.65
2022-08-28T05:09:23.530Z,9.23
2022-08-28T05:11:54.706Z,6.68
2022-08-28T05:14:22.873Z,8.35
2022-08-28T05:16:54.729Z,10.45
2022-08-28T05:19:25.972Z,9.48
2022-08-28T05:21:54.462Z,9.05
2022-08-28T05:24:24.884Z,8.55
2022-08-28T05:29:25.713Z,7.07
2022-08-28T05:31:56.428Z,7.57
2022-08-28T05:34:26.490Z,8.57
2022-08-28T05:36:54.298Z,12.00
2022-08-28T05:39:24.451Z,8.43
2022-08-28T05:41:56.140Z,4.70
2022-08-28T05:44:24.275Z,8.07
2022-08-28T05:46:54.526Z,15.10
2022-08-28T05:49:24.886Z,9.07
2022-08-28T05:54:22.387Z,11.07
2022-08-28T05:56:52.560Z,4.88
2022-08-28T05:59:21.781Z,6.43
2022-08-28T06:01:52.858Z,6.07
2022-08-28T06:04:28.010Z,5.13
2022-08-28T06:06:58.000Z,8.70
2022-08-28T06:09:30.193Z,6.57
2022-08-28T06:12:02.128Z,9.32
2022-08-28T06:14:33.345Z,5.63
2022-08-28T06:17:03.039Z,5.47
2022-08-28T06:19:40.589Z,6.65
2022-08-28T06:22:14.723Z,4.35
2022-08-28T06:24:44.520Z,4.53
2022-08-28T06:27:14.752Z,8.13
2022-08-28T06:29:44.801Z,6.10
2022-08-28T06:32:13.481Z,5.13
2022-08-28T06:34:43.567Z,6.18
2022-08-28T06:37:11.349Z,3.45
2022-08-28T06:39:41.015Z,3.75
2022-08-28T06:42:11.416Z,6.60
2022-08-28T06:44:39.314Z,5.57
2022-08-28T06:47:10.781Z,6.13
2022-08-28T06:49:41.488Z,6.30
2022-08-28T06:52:09.339Z,5.07
2022-08-28T06:54:39.489Z,3.78
2022-08-28T06:57:10.598Z,5.00
2022-08-28T06:59:38.537Z,6.40
2022-08-28T07:02:06.572Z,5.55
2022-08-28T07:04:36.288Z,3.75
2022-08-28T07:07:04.167Z,3.35
2022-08-28T07:09:36.884Z,3.53
2022-08-28T07:12:09.096Z,4.50
2022-08-28T07:14:38.192Z,3.70
2022-08-28T07:17:07.435Z,3.28
2022-08-28T07:19:36.858Z,6.13
2022-08-28T07:22:05.933Z,3.33
2022-08-28T07:24:33.816Z,4.70
2022-08-28T07:27:01.731Z,5.55
2022-08-28T07:29:31.889Z,3.95
2022-08-28T07:31:59.782Z,5.95
2022-08-28T07:34:29.860Z,3.17
2022-08-28T07:37:06.002Z,4.38
2022-08-28T07:39:36.625Z,3.25
2022-08-28T07:42:04.742Z,5.22
2022-08-28T07:44:52.246Z,5.15
2022-08-28T07:47:23.644Z,7.40
2022-08-28T07:49:56.214Z,5.07
2022-08-28T07:52:29.494Z,4.55
2022-08-28T07:54:59.460Z,3.08
2022-08-28T07:57:27.483Z,4.93
2022-08-28T07:59:55.304Z,3.13
2022-08-28T08:02:25.080Z,4.80
2022-08-28T08:04:56.732Z,6.88
2022-08-28T08:07:26.133Z,4.55
2022-08-28T08:09:55.926Z,4.77
2022-08-28T08:12:29.441Z,3.92
2022-08-28T08:14:59.310Z,2.97
2022-08-28T08:17:27.352Z,6.68
2022-08-28T08:19:57.562Z,3.75
2022-08-28T08:22:26.962Z,4.95
2022-08-28T08:24:55.390Z,6.07
2022-08-28T08:27:25.520Z,2.40
2022-08-28T08:29:57.511Z,4.05
2022-08-28T08:32:25.634Z,4.18
2022-08-28T08:34:55.652Z,6.10
2022-08-28T08:37:28.979Z,7.70
2022-08-28T08:39:56.920Z,8.90
2022-08-28T08:42:32.446Z,8.13
2022-08-28T08:45:04.608Z,4.32
2022-08-28T08:47:39.955Z,6.72
2022-08-28T08:50:12.003Z,5.13
2022-08-28T08:52:51.793Z,4.25
2022-08-28T08:55:29.031Z,5.85
2022-08-28T08:58:08.007Z,6.45
2022-08-28T09:00:41.311Z,7.03
2022-08-28T09:03:17.358Z,7.95
2022-08-28T09:05:53.350Z,6.43
2022-08-28T09:08:33.332Z,6.40
2022-08-28T09:11:11.951Z,4.10
2022-08-28T09:13:49.476Z,4.72
2022-08-28T09:16:27.363Z,5.45
2022-08-28T09:18:58.455Z,7.32
2022-08-28T09:21:30.752Z,5.40
2022-08-28T09:24:05.990Z,5.78
2022-08-28T09:26:41.590Z,3.60
2022-08-28T09:29:20.531Z,3.88
2022-08-28T09:31:50.690Z,4.25
2022-08-28T09:34:25.847Z,4.22
2022-08-28T09:36:57.073Z,5.22
2022-08-28T09:39:30.638Z,4.70
2022-08-28T09:42:22.726Z,7.40
2022-08-28T09:44:57.107Z,5.05
2022-08-28T09:47:46.782Z,3.53
2022-08-28T09:50:23.491Z,5.47
2022-08-28T09:52:52.226Z,4.25
2022-08-28T09:57:56.576Z,6.90
2022-08-28T10:03:05.722Z,3.67
2022-08-28T10:05:43.464Z,5.15
2022-08-28T10:08:26.532Z,5.32
2022-08-28T10:11:01.088Z,5.55
2022-08-28T10:13:36.060Z,5.20
2022-08-28T10:16:26.302Z,4.78
2022-08-28T10:19:03.986Z,4.15
2022-08-28T10:21:41.611Z,4.55
2022-08-28T10:24:26.696Z,6.35
2022-08-28T10:27:10.760Z,1.73
2022-08-28T10:29:53.548Z,5.38
2022-08-28T10:32:45.595Z,6.68
2022-08-28T10:35:19.285Z,3.97
2022-08-28T10:37:57.366Z,3.28
2022-08-28T10:40:29.648Z,6.38
2022-08-28T10:43:06.001Z,2.83
2022-08-28T10:45:35.882Z,4.38
2022-08-28T10:48:10.218Z,5.05
2022-08-28T10:50:45.529Z,3.72
2022-08-28T10:53:19.503Z,2.45
2022-08-28T10:55:56.993Z,4.00
2022-08-28T10:58:29.011Z,2.75
2022-08-28T11:01:04.804Z,3.38
2022-08-28T11:03:41.531Z,3.88
2022-08-28T11:06:24.713Z,7.03
2022-08-28T11:08:59.631Z,2.85
2022-08-28T11:11:44.484Z,3.55
2022-08-28T11:14:25.520Z,5.40
2022-08-28T11:16:54.873Z,2.58
2022-08-28T11:19:58.687Z,5.87
2022-08-28T11:22:30.641Z,5.35
2022-08-28T11:25:09.067Z,8.18
2022-08-28T11:27:41.859Z,4.03
2022-08-28T11:30:34.050Z,6.88
2022-08-28T11:33:08.033Z,3.72
2022-08-28T11:35:51.579Z,5.82
2022-08-28T11:38:59.772Z,4.47
2022-08-28T11:41:31.808Z,5.70
2022-08-28T11:44:39.423Z,4.47
2022-08-28T11:47:44.713Z,3.47
2022-08-28T11:50:21.834Z,3.78
2022-08-28T12:06:03.849Z,4.63
2022-08-28T12:09:07.227Z,2.10
2022-08-28T12:11:59.198Z,5.75
2022-08-28T12:15:03.910Z,3.80
2022-08-28T12:17:49.002Z,2.90
2022-08-28T12:20:35.094Z,2.92
2022-08-28T12:23:25.549Z,3.53
2022-08-28T12:28:31.806Z,4.32
2022-08-28T12:31:45.152Z,4.60
2022-08-28T12:34:21.762Z,4.15
2022-08-28T12:36:57.046Z,3.92
2022-08-28T12:39:30.030Z,4.00
2022-08-28T12:41:58.845Z,3.17
2022-08-28T12:44:30.563Z,5.43
2022-08-28T12:46:59.418Z,4.68
2022-08-28T12:49:31.709Z,5.20
2022-08-28T12:52:17.645Z,5.75
2022-08-28T12:54:48.228Z,5.72
2022-08-28T12:57:22.941Z,4.78
2022-08-28T12:59:52.726Z,9.65
2022-08-28T13:02:30.030Z,7.45
2022-08-28T13:05:01.618Z,6.70
2022-08-28T13:07:33.880Z,5.03
2022-08-28T13:12:56.306Z,7.22
2022-08-28T13:15:51.903Z,4.90
2022-08-28T13:18:56.490Z,8.13
2022-08-28T13:24:42.757Z,5.55
2022-08-28T13:27:24.903Z,3.80
2022-08-28T13:30:00.980Z,4.63
2022-08-28T13:32:31.700Z,6.33
2022-08-28T13:43:19.006Z,6.93
2022-08-28T13:48:22.240Z,3.83
2022-08-28T13:53:23.870Z,2.37
2022-08-28T13:55:52.218Z,5.97
2022-08-28T13:58:25.446Z,3.97
2022-08-28T14:00:54.374Z,3.67
2022-08-28T14:03:37.978Z,6.33
2022-08-28T14:06:11.960Z,2.87
2022-08-28T14:08:46.212Z,3.50
2022-08-28T14:11:16.275Z,3.73
2022-08-28T14:13:55.373Z,3.35
2022-08-28T14:16:24.756Z,4.27
2022-08-28T14:18:56.892Z,4.83
2022-08-28T14:21:25.367Z,2.83
2022-08-28T14:23:53.502Z,3.93
2022-08-28T14:26:23.697Z,6.53
2022-08-28T14:28:53.266Z,5.35
2022-08-28T14:31:21.579Z,3.03
2022-08-28T14:33:56.464Z,2.63
2022-08-28T14:36:26.890Z,4.00
2022-08-28T14:39:01.745Z,1.83
2022-08-28T14:41:31.897Z,4.30
2022-08-28T14:44:05.149Z,3.17
2022-08-28T14:46:37.837Z,2.47
2022-08-28T14:49:12.243Z,3.17
2022-08-28T14:51:42.345Z,2.83
2022-08-28T14:54:17.768Z,2.38
2022-08-28T14:56:47.440Z,4.43
2022-08-28T14:59:24.319Z,3.50
2022-08-28T15:01:53.610Z,2.80
2022-08-28T15:04:26.272Z,3.60
2022-08-28T15:06:58.109Z,5.00
2022-08-28T15:09:31.104Z,4.33
2022-08-28T15:11:58.888Z,4.47
2022-08-28T15:14:28.092Z,4.47
2022-08-28T15:17:00.178Z,2.33
2022-08-28T15:19:30.110Z,4.53
2022-08-28T15:21:59.043Z,4.32
2022-08-28T15:24:30.948Z,3.10
2022-08-28T15:26:59.819Z,3.60
2022-08-28T15:29:31.370Z,6.67
2022-08-28T15:32:02.435Z,4.87
2022-08-28T15:34:31.046Z,4.00
2022-08-28T15:36:59.603Z,3.80
2022-08-28T15:39:46.966Z,5.83
2022-08-28T15:42:15.304Z,3.33
2022-08-28T15:44:44.659Z,3.70
2022-08-28T15:47:16.890Z,2.70
2022-08-28T15:49:51.990Z,4.13
2022-08-28T15:52:22.308Z,4.30
2022-08-28T15:54:52.519Z,4.32
2022-08-28T15:57:20.403Z,4.00
2022-08-28T15:59:51.671Z,4.00
2022-08-28T16:02:24.087Z,3.20
2022-08-28T16:04:52.592Z,4.27
2022-08-28T16:07:24.289Z,4.10
2022-08-28T16:09:54.520Z,4.50
2022-08-28T16:12:22.861Z,4.72
2022-08-28T16:14:53.972Z,4.17
2022-08-28T16:17:24.202Z,2.13
2022-08-28T16:19:52.672Z,4.13
2022-08-28T16:22:20.713Z,3.47
2022-08-28T16:24:51.184Z,2.57
2022-08-28T16:29:49.587Z,4.20
2022-08-28T16:32:26.469Z,3.67
2022-08-28T16:37:22.987Z,2.33
2022-08-28T16:39:58.771Z,2.57
2022-08-28T16:42:30.903Z,2.27
2022-08-28T16:45:05.542Z,3.10
2022-08-28T16:47:35.988Z,3.73
2022-08-28T16:50:11.138Z,3.22
2022-08-28T16:52:39.438Z,4.00
2022-08-28T16:55:11.618Z,5.63
2022-08-28T16:57:42.345Z,2.90
2022-08-28T17:00:13.526Z,4.13
2022-08-28T17:02:43.849Z,4.33
2022-08-28T17:10:12.726Z,3.30
2022-08-28T17:15:12.220Z,4.37
2022-08-28T17:17:42.706Z,4.30
2022-08-28T17:23:13.131Z,4.33
2022-08-28T17:25:41.111Z,4.73
2022-08-28T17:28:09.273Z,3.30
2022-08-28T17:30:37.591Z,2.60
2022-08-28T17:33:07.077Z,2.87
2022-08-28T17:35:42.173Z,2.72
2022-08-28T17:38:13.079Z,3.90
2022-08-28T17:40:41.565Z,4.90
2022-08-28T17:43:09.705Z,2.50
2022-08-28T17:45:38.478Z,5.53
2022-08-28T17:48:07.029Z,2.73
2022-08-28T17:50:36.418Z,3.77
2022-08-28T17:53:04.592Z,1.80
2022-08-28T17:55:34.927Z,2.27
2022-08-28T17:58:03.085Z,2.95
2022-08-28T18:00:33.729Z,3.33
2022-08-28T18:03:02.802Z,2.47
2022-08-28T18:05:31.043Z,4.80
2022-08-28T18:08:02.834Z,3.40
2022-08-28T18:10:36.235Z,1.60
2022-08-28T18:13:06.259Z,4.35
2022-08-28T18:15:36.957Z,2.90
2022-08-28T18:18:07.629Z,4.70
2022-08-28T18:20:37.861Z,2.53
2022-08-28T18:23:11.419Z,2.85
2022-08-28T18:25:50.617Z,3.40
2022-08-28T18:28:24.011Z,3.95
2022-08-28T18:30:55.642Z,4.67
2022-08-28T18:33:28.414Z,1.63
2022-08-28T18:35:58.391Z,4.53
2022-08-28T18:38:32.118Z,6.30
2022-08-28T18:41:04.848Z,3.87
2022-08-28T18:43:35.904Z,4.03
2022-08-28T18:46:07.964Z,4.63
2022-08-28T18:48:39.329Z,4.00
2022-08-28T18:51:08.412Z,4.93
2022-08-28T18:53:39.020Z,4.13
2022-08-28T18:56:12.401Z,4.43
2022-08-28T18:58:41.855Z,3.60
2022-08-28T19:01:12.111Z,2.83
2022-08-28T19:03:45.831Z,3.58
2022-08-28T19:06:17.698Z,2.37
2022-08-28T19:08:52.920Z,3.93
2022-08-28T19:11:21.683Z,5.73
2022-08-28T19:13:51.039Z,2.50
2022-08-28T19:16:22.799Z,4.00
2022-08-28T19:18:53.030Z,3.73
2022-08-28T19:21:25.186Z,2.70
2022-08-28T19:23:56.583Z,2.73
2022-08-28T19:26:30.266Z,5.40
2022-08-28T19:29:00.927Z,2.47
2022-08-28T19:31:34.848Z,2.23
2022-08-28T19:34:03.452Z,1.73
2022-08-28T19:36:31.990Z,4.47
2022-08-28T19:39:02.431Z,3.00
2022-08-28T19:41:31.800Z,1.83
2022-08-28T19:44:02.781Z,3.87
2022-08-28T19:46:34.145Z,5.07
2022-08-28T19:49:05.949Z,4.80
2022-08-28T19:51:36.184Z,2.13
2022-08-28T19:54:11.183Z,3.95
2022-08-28T19:56:42.354Z,3.00
2022-08-28T19:59:11.005Z,2.67
2022-08-28T20:01:43.738Z,1.77
2022-08-28T20:04:16.634Z,2.27
2022-08-28T20:06:48.174Z,3.97
2022-08-28T20:09:18.438Z,2.90
2022-08-28T20:11:47.134Z,4.25
2022-08-28T20:14:16.745Z,5.30
2022-08-28T20:16:47.166Z,4.20
2022-08-28T20:19:15.602Z,2.90
2022-08-28T20:21:47.184Z,4.57
2022-08-28T20:24:20.394Z,1.83
2022-08-28T20:26:52.216Z,1.93
2022-08-28T20:29:21.598Z,2.43
2022-08-28T20:31:50.226Z,1.30
2022-08-28T20:34:20.167Z,6.00
2022-08-28T20:36:49.060Z,2.40
2022-08-28T20:39:19.102Z,3.37
2022-08-28T20:41:52.391Z,0.85
2022-08-28T20:44:21.783Z,3.00
2022-08-28T20:46:53.780Z,2.70
2022-08-28T20:49:23.862Z,2.43
2022-08-28T20:51:56.881Z,3.67
2022-08-28T20:54:31.303Z,2.17
2022-08-28T20:57:01.817Z,1.47
2022-08-28T21:02:10.562Z,4.07
2022-08-28T21:04:40.056Z,2.03
2022-08-28T21:07:08.079Z,6.50
2022-08-28T21:10:04.250Z,3.57
2022-08-28T21:12:27.893Z,1.88
2022-08-28T21:14:56.043Z,2.47
2022-08-28T21:17:28.675Z,2.33
2022-08-28T21:20:04.425Z,1.43
2022-08-28T21:22:34.502Z,1.53
2022-08-28T21:25:10.817Z,2.60
2022-08-28T21:27:39.125Z,3.27
2022-08-28T21:30:11.778Z,3.57
2022-08-28T21:32:40.292Z,3.50
2022-08-28T21:35:15.901Z,1.27
2022-08-28T21:37:44.200Z,2.33
2022-08-28T21:40:19.160Z,2.57
2022-08-28T21:42:47.086Z,1.03
2022-08-28T21:45:15.219Z,2.23
2022-08-28T21:47:45.296Z,1.20
2022-08-28T21:50:13.592Z,2.55
2022-08-28T21:52:41.790Z,2.60
2022-08-28T21:55:16.411Z,4.63
2022-08-28T21:57:44.858Z,1.80
2022-08-28T22:00:19.963Z,4.57
2022-08-28T22:02:48.653Z,4.60
2022-08-28T22:05:18.942Z,2.00
2022-08-28T22:07:48.710Z,1.42
2022-08-28T22:10:26.272Z,1.95
2022-08-28T22:12:56.054Z,3.67
2022-08-28T22:15:24.155Z,3.10
2022-08-28T22:17:54.890Z,4.47
2022-08-28T22:20:24.676Z,3.40
2022-08-28T22:23:09.938Z,7.03
2022-08-28T22:25:45.387Z,4.00
2022-08-28T22:28:13.356Z,2.27
2022-08-28T22:30:43.692Z,3.53
2022-08-28T22:33:13.712Z,3.45
2022-08-28T22:35:41.588Z,2.60
2022-08-28T22:38:11.627Z,1.63
2022-08-28T22:40:42.806Z,1.60
2022-08-28T22:43:10.710Z,2.10
2022-08-28T22:45:38.807Z,2.20
2022-08-28T22:48:07.154Z,2.10
2022-08-28T22:50:35.210Z,2.30
2022-08-28T22:53:05.746Z,6.63
2022-08-28T22:58:06.390Z,2.10
2022-08-28T23:00:37.186Z,4.70
2022-08-28T23:03:05.764Z,3.77
2022-08-28T23:05:33.977Z,4.70
2022-08-28T23:08:03.769Z,4.73
2022-08-28T23:10:57.602Z,3.38
2022-08-28T23:13:24.996Z,1.45
2022-08-28T23:15:52.891Z,2.47
2022-08-28T23:18:21.158Z,3.03
2022-08-28T23:20:53.029Z,1.23
2022-08-28T23:23:21.104Z,1.87
2022-08-28T23:25:49.385Z,3.77
2022-08-28T23:28:22.146Z,3.00
2022-08-28T23:30:51.426Z,3.27
2022-08-28T23:33:23.714Z,3.70
2022-08-28T23:35:55.961Z,1.87
2022-08-28T23:38:23.833Z,2.90
2022-08-28T23:40:51.977Z,4.83
2022-08-28T23:43:23.957Z,2.40
2022-08-28T23:45:53.175Z,2.83
2022-08-28T23:48:21.782Z,2.33
2022-08-28T23:50:54.030Z,4.93
2022-08-28T23:53:21.994Z,3.63
2022-08-28T23:55:50.907Z,1.17
2022-08-28T23:58:22.868Z,3.70
